Aviation Digital Data Service (ADDS)

Output produced by TAFs form (1454 UTC 11 December 2017)
found at http://www.aviationweather.gov/adds/tafs/
 
KMOB 111356Z 26003KT 10SM CLR 07/03 A3030 RMK AO2 SLP259 T00720028
KMOB 111120Z 1112/1212 23004KT P6SM SKC 
     FM111800 24008KT P6SM SKC